createdAt,value
2022-09-06T00:00:34.806Z,100133.81
2022-09-06T00:03:05.544Z,100137.28
2022-09-06T00:05:34.975Z,100136.47
2022-09-06T00:08:05.753Z,100133.00
2022-09-06T00:10:35.394Z,100133.00
2022-09-06T00:13:06.437Z,100119.31
2022-09-06T00:15:36.448Z,100130.41
2022-09-06T00:18:08.547Z,100126.16
2022-09-06T00:20:41.635Z,100126.16
2022-09-06T00:23:10.385Z,100121.91
2022-09-06T00:25:39.194Z,100114.25
2022-09-06T00:28:08.195Z,100123.72
2022-09-06T00:30:36.917Z,100126.25
2022-09-06T00:33:06.974Z,100124.63
2022-09-06T00:35:35.564Z,100127.25
2022-09-06T00:38:04.313Z,100122.13
2022-09-06T00:40:36.544Z,100117.94
2022-09-06T00:43:05.307Z,100129.09
2022-09-06T00:45:34.674Z,100128.25
2022-09-06T00:48:06.926Z,100124.78
2022-09-06T00:50:37.215Z,100125.63
2022-09-06T00:53:06.226Z,100123.97
2022-09-06T00:55:35.255Z,100119.66
2022-09-06T00:58:04.444Z,100123.91
2022-09-06T01:00:33.286Z,100117.09
2022-09-06T01:03:02.030Z,100111.19
2022-09-06T01:05:40.694Z,100121.50
2022-09-06T01:08:45.026Z,100105.22
2022-09-06T01:11:30.675Z,100109.56
2022-09-06T01:14:12.645Z,100114.66
2022-09-06T01:16:48.487Z,100106.03
2022-09-06T01:19:48.145Z,100105.31
2022-09-06T01:22:38.934Z,100109.66
2022-09-06T01:25:23.404Z,100114.75
2022-09-06T01:28:17.675Z,100111.41
2022-09-06T01:30:59.100Z,100106.25
2022-09-06T01:33:36.164Z,100109.78
2022-09-06T01:36:08.527Z,100102.91
2022-09-06T01:38:38.233Z,100110.63
2022-09-06T01:41:07.004Z,100101.22
2022-09-06T01:43:41.183Z,100115.03
2022-09-06T01:46:19.034Z,100105.59
2022-09-06T01:49:19.863Z,100103.88
2022-09-06T01:51:58.727Z,100103.94
2022-09-06T01:54:36.617Z,100096.25
2022-09-06T01:57:19.803Z,100100.53
2022-09-06T02:00:05.585Z,100098.91
2022-09-06T02:02:53.932Z,100098.97
2022-09-06T02:05:30.044Z,100105.84
2022-09-06T02:08:03.302Z,100094.69
2022-09-06T02:10:38.664Z,100093.78
2022-09-06T02:13:11.244Z,100096.31
2022-09-06T02:15:44.403Z,100102.28
2022-09-06T02:18:18.456Z,100100.63
2022-09-06T02:20:51.515Z,100104.16
2022-09-06T02:23:25.217Z,100105.97
2022-09-06T02:25:58.876Z,100102.66
2022-09-06T02:28:28.156Z,100100.06
2022-09-06T02:31:01.063Z,100099.22
2022-09-06T02:33:33.943Z,100100.06
2022-09-06T02:36:06.572Z,100101.81
2022-09-06T02:38:38.816Z,100115.63
2022-09-06T02:41:08.584Z,100101.00
2022-09-06T02:43:36.944Z,100100.19
2022-09-06T02:46:05.879Z,100107.88
2022-09-06T02:48:36.147Z,100100.16
2022-09-06T02:51:05.654Z,100102.69
2022-09-06T02:53:34.504Z,100096.69
2022-09-06T02:56:03.838Z,100088.91
2022-09-06T02:58:32.488Z,100096.63
2022-09-06T03:01:01.080Z,100089.75
2022-09-06T03:03:29.855Z,100087.13
2022-09-06T03:06:00.156Z,100093.13
2022-09-06T03:08:33.725Z,100086.25
2022-09-06T03:11:02.972Z,100079.44
2022-09-06T03:13:31.794Z,100071.78
2022-09-06T03:16:01.752Z,100080.22
2022-09-06T03:18:31.752Z,100070.00
2022-09-06T03:21:01.992Z,100084.59
2022-09-06T03:23:31.441Z,100075.19
2022-09-06T03:26:00.039Z,100074.38
2022-09-06T03:28:29.491Z,100075.22
2022-09-06T03:30:58.790Z,100081.19
2022-09-06T03:33:27.775Z,100077.78
2022-09-06T03:35:58.519Z,100071.78
2022-09-06T03:38:30.476Z,100067.50
2022-09-06T03:40:59.532Z,100065.78
2022-09-06T03:43:29.817Z,100060.63
2022-09-06T03:45:59.374Z,100056.34
2022-09-06T03:48:30.299Z,100055.66
2022-09-06T03:51:00.514Z,100059.03
2022-09-06T03:53:31.025Z,100059.91
2022-09-06T03:56:00.133Z,100059.94
2022-09-06T03:58:32.967Z,100064.22
2022-09-06T04:01:04.824Z,100061.66
2022-09-06T04:03:34.206Z,100052.25
2022-09-06T04:06:03.443Z,100060.78
2022-09-06T04:08:34.382Z,100051.34
2022-09-06T04:11:03.069Z,100058.22
2022-09-06T04:13:34.844Z,100059.06
2022-09-06T04:16:03.991Z,100053.97
2022-09-06T04:18:33.074Z,100059.19
2022-09-06T04:21:02.257Z,100059.19
2022-09-06T04:23:31.037Z,100062.59
2022-09-06T04:26:01.376Z,100056.63
2022-09-06T04:28:31.068Z,100059.13
2022-09-06T04:31:04.681Z,100065.97
2022-09-06T04:33:35.457Z,100069.38
2022-09-06T04:36:06.270Z,100063.34
2022-09-06T04:38:38.323Z,100069.28
2022-09-06T04:41:09.680Z,100060.78
2022-09-06T04:43:38.594Z,100070.06
2022-09-06T04:46:12.807Z,100079.41
2022-09-06T04:48:41.475Z,100082.78
2022-09-06T04:51:10.036Z,100068.13
2022-09-06T04:53:38.649Z,100068.88
2022-09-06T04:56:08.850Z,100070.47
2022-09-06T04:58:37.593Z,100064.34
2022-09-06T05:01:06.571Z,100057.38
2022-09-06T05:03:35.716Z,100065.81
2022-09-06T05:06:09.792Z,100069.09
2022-09-06T05:08:39.896Z,100069.09
2022-09-06T05:11:11.181Z,100067.19
2022-09-06T05:13:39.997Z,100070.53
2022-09-06T05:16:10.279Z,100066.09
2022-09-06T05:18:39.034Z,100071.13
2022-09-06T05:21:08.077Z,100072.75
2022-09-06T05:23:36.972Z,100062.28
2022-09-06T05:26:06.427Z,100069.97
2022-09-06T05:28:36.594Z,100068.94
2022-09-06T05:31:10.986Z,100067.13
2022-09-06T05:33:40.009Z,100064.25
2022-09-06T05:36:09.320Z,100064.09
2022-09-06T05:38:38.009Z,100059.56
2022-09-06T05:41:06.889Z,100062.91
2022-09-06T05:43:37.028Z,100062.78
2022-09-06T05:46:06.309Z,100066.97
2022-09-06T05:48:37.241Z,100067.78
2022-09-06T05:51:08.163Z,100064.16
2022-09-06T05:53:37.955Z,100062.22
2022-09-06T05:56:07.440Z,100068.81
2022-09-06T05:58:38.501Z,100060.81
2022-09-06T06:01:10.216Z,100056.28
2022-09-06T06:03:39.252Z,100055.97
2022-09-06T06:06:08.167Z,100053.88
2022-09-06T06:08:37.322Z,100058.78
2022-09-06T06:11:06.119Z,100068.91
2022-09-06T06:13:39.808Z,100072.22
2022-09-06T06:16:12.167Z,100066.97
2022-09-06T06:18:41.863Z,100063.50
2022-09-06T06:21:14.565Z,100071.88
2022-09-06T06:23:44.563Z,100072.69
2022-09-06T06:26:14.219Z,100065.78
2022-09-06T06:28:42.930Z,100063.06
2022-09-06T06:31:14.906Z,100062.22
2022-09-06T06:33:44.798Z,100060.31
2022-09-06T06:36:22.126Z,100069.25
2022-09-06T06:38:53.446Z,100073.00
2022-09-06T06:41:25.452Z,100073.53
2022-09-06T06:43:54.452Z,100077.44
2022-09-06T06:46:26.705Z,100079.78
2022-09-06T06:48:55.914Z,100082.88
2022-09-06T06:51:27.234Z,100075.44
2022-09-06T06:53:57.321Z,100081.00
2022-09-06T06:56:28.163Z,100081.41
2022-09-06T06:58:59.427Z,100081.00
2022-09-06T07:01:31.639Z,100087.41
2022-09-06T07:04:00.613Z,100090.16
2022-09-06T07:09:18.694Z,100086.16
2022-09-06T07:11:48.808Z,100080.66
2022-09-06T07:14:17.593Z,100086.41
2022-09-06T07:16:47.978Z,100076.13
2022-09-06T07:22:06.397Z,100081.34
2022-09-06T07:24:35.832Z,100083.66
2022-09-06T07:29:53.321Z,100085.81
2022-09-06T07:32:23.353Z,100083.00
2022-09-06T07:34:52.720Z,100084.69
2022-09-06T07:37:21.815Z,100081.88
2022-09-06T07:39:51.338Z,100087.16
2022-09-06T07:42:20.727Z,100086.72
2022-09-06T07:44:49.280Z,100085.66
2022-09-06T07:53:16.547Z,100075.00
2022-09-06T07:55:46.508Z,100069.47
2022-09-06T07:58:15.499Z,100068.94
2022-09-06T08:00:44.191Z,100071.78
2022-09-06T08:03:12.820Z,100067.63
2022-09-06T08:11:21.433Z,100069.50
2022-09-06T08:13:54.970Z,100071.25
2022-09-06T08:16:25.732Z,100072.09
2022-09-06T08:18:56.987Z,100071.25
2022-09-06T08:21:29.619Z,100072.28
2022-09-06T08:24:00.476Z,100061.31
2022-09-06T08:26:30.787Z,100067.44
2022-09-06T08:29:01.293Z,100072.75
2022-09-06T08:31:32.133Z,100081.47
2022-09-06T08:34:02.732Z,100071.97
2022-09-06T08:36:33.587Z,100060.91
2022-09-06T08:39:05.553Z,100065.22
2022-09-06T08:41:39.285Z,100070.41
2022-09-06T08:47:02.371Z,100073.19
2022-09-06T08:49:34.230Z,100066.28
2022-09-06T08:52:24.327Z,100073.22
2022-09-06T08:55:01.728Z,100073.13
2022-09-06T08:57:47.479Z,100064.34
2022-09-06T09:00:16.510Z,100060.00
2022-09-06T09:02:48.060Z,100054.94
2022-09-06T09:05:30.797Z,100052.41
2022-09-06T09:08:09.525Z,100054.94
2022-09-06T09:10:45.800Z,100053.13
2022-09-06T09:13:27.168Z,100045.44
2022-09-06T09:15:55.933Z,100054.81
2022-09-06T09:18:28.781Z,100042.97
2022-09-06T09:20:58.744Z,100044.75
2022-09-06T09:23:30.299Z,100047.53
2022-09-06T09:26:04.748Z,100043.47
2022-09-06T09:28:33.680Z,100048.88
2022-09-06T09:31:02.178Z,100046.56
2022-09-06T09:33:34.841Z,100041.75
2022-09-06T09:36:08.227Z,100053.66
2022-09-06T09:38:44.152Z,100056.84
2022-09-06T09:41:28.729Z,100070.50
2022-09-06T09:44:04.363Z,100073.81
2022-09-06T09:46:36.001Z,100071.88
2022-09-06T09:49:09.992Z,100074.09
2022-09-06T09:51:42.444Z,100070.22
2022-09-06T09:54:15.862Z,100054.31
2022-09-06T09:56:51.851Z,100055.66
2022-09-06T09:59:24.838Z,100043.09
2022-09-06T10:01:56.758Z,100046.03
2022-09-06T10:04:46.455Z,100059.94
2022-09-06T10:07:18.028Z,100066.34
2022-09-06T10:09:50.489Z,100063.38
2022-09-06T10:12:29.878Z,100062.47
2022-09-06T10:15:02.283Z,100060.81
2022-09-06T10:17:36.402Z,100065.13
2022-09-06T10:20:09.558Z,100070.19
2022-09-06T10:22:53.860Z,100074.16
2022-09-06T10:25:49.538Z,100069.59
2022-09-06T10:28:31.110Z,100070.56
2022-09-06T10:31:24.278Z,100070.34
2022-09-06T10:34:04.955Z,100078.97
2022-09-06T10:36:37.553Z,100079.97
2022-09-06T10:39:16.848Z,100081.63
2022-09-06T10:42:12.571Z,100078.25
2022-09-06T10:44:59.880Z,100073.41
2022-09-06T10:47:34.072Z,100076.97
2022-09-06T10:50:05.381Z,100071.28
2022-09-06T10:52:42.432Z,100061.88
2022-09-06T10:55:15.622Z,100058.56
2022-09-06T11:00:46.962Z,100036.03
2022-09-06T11:06:17.335Z,100030.34
2022-09-06T11:08:57.735Z,100034.13
2022-09-06T11:11:35.919Z,100038.88
2022-09-06T11:14:12.974Z,100037.06
2022-09-06T11:16:49.624Z,100025.72
2022-09-06T11:19:23.351Z,100022.50
2022-09-06T11:22:23.732Z,100025.72
2022-09-06T11:25:24.072Z,100022.84
2022-09-06T11:27:58.225Z,100016.59
2022-09-06T11:30:30.615Z,99981.50
2022-09-06T11:33:14.726Z,100017.66
2022-09-06T11:35:45.485Z,100005.59
2022-09-06T11:38:24.943Z,100013.03
2022-09-06T11:41:01.219Z,100009.44
2022-09-06T11:43:45.624Z,100008.44
2022-09-06T11:47:00.224Z,100004.78
2022-09-06T11:49:37.752Z,99995.19
2022-09-06T11:52:32.255Z,99989.84
2022-09-06T11:55:01.176Z,99999.22
2022-09-06T11:57:31.185Z,99999.03
2022-09-06T12:00:04.168Z,100001.44
2022-09-06T12:02:38.084Z,100010.00
2022-09-06T12:05:17.787Z,100000.38
2022-09-06T12:07:57.058Z,99999.66
2022-09-06T12:10:46.584Z,100000.50
2022-09-06T12:13:36.782Z,99996.91
2022-09-06T12:16:07.629Z,100002.31
2022-09-06T12:18:58.081Z,100001.53
2022-09-06T12:21:52.798Z,100005.56
2022-09-06T12:24:42.448Z,99999.56
2022-09-06T12:27:14.116Z,100003.78
2022-09-06T12:29:52.122Z,100004.91
2022-09-06T12:32:24.120Z,100004.06
2022-09-06T12:37:55.884Z,100001.28
2022-09-06T12:40:26.871Z,99994.38
2022-09-06T12:42:56.228Z,99994.47
2022-09-06T12:45:27.700Z,99994.53
2022-09-06T12:48:10.288Z,99993.41
2022-09-06T12:50:39.490Z,99978.69
2022-09-06T12:53:25.381Z,99971.78
2022-09-06T12:56:06.138Z,99971.84
2022-09-06T12:58:35.315Z,99967.50
2022-09-06T13:01:07.639Z,99964.00
2022-09-06T13:03:40.800Z,99969.19
2022-09-06T13:06:13.019Z,99976.38
2022-09-06T13:08:48.938Z,99962.84
2022-09-06T13:11:25.289Z,99950.94
2022-09-06T13:13:56.616Z,99955.47
2022-09-06T13:16:27.251Z,99946.22
2022-09-06T13:18:56.827Z,99958.16
2022-09-06T13:21:29.842Z,99949.59
2022-09-06T13:24:04.142Z,99942.63
2022-09-06T13:26:38.969Z,99939.94
2022-09-06T13:29:12.563Z,99944.22
2022-09-06T13:31:47.139Z,99926.34
2022-09-06T13:34:22.864Z,99923.16
2022-09-06T13:36:53.581Z,99922.44
2022-09-06T13:39:37.760Z,99929.38
2022-09-06T13:42:08.663Z,99918.09
2022-09-06T13:44:39.536Z,99912.13
2022-09-06T13:47:08.672Z,99904.31
2022-09-06T13:49:37.193Z,99893.78
2022-09-06T13:52:06.459Z,99891.03
2022-09-06T13:54:37.071Z,99893.22
2022-09-06T13:57:05.774Z,99896.59
2022-09-06T13:59:34.324Z,99873.16
2022-09-06T14:02:06.244Z,99862.56
2022-09-06T14:04:36.413Z,99863.31
2022-09-06T14:07:05.836Z,99860.44
2022-09-06T14:09:36.333Z,99863.84
2022-09-06T14:12:07.344Z,99880.84
2022-09-06T14:14:36.222Z,99895.31
2022-09-06T14:17:05.331Z,99909.91
2022-09-06T14:19:34.472Z,99908.59
2022-09-06T14:22:05.313Z,99894.94
2022-09-06T14:24:35.501Z,99896.72
2022-09-06T14:27:05.515Z,99895.03
2022-09-06T14:29:34.614Z,99888.31
2022-09-06T14:32:03.944Z,99903.19
2022-09-06T14:34:32.902Z,99894.53
2022-09-06T14:37:01.645Z,99893.47
2022-09-06T14:39:30.502Z,99886.34
2022-09-06T14:42:00.596Z,99883.66
2022-09-06T14:44:29.423Z,99877.50
2022-09-06T14:46:58.465Z,99878.13
2022-09-06T14:49:28.363Z,99879.72
2022-09-06T14:51:57.085Z,99882.13
2022-09-06T14:54:29.135Z,99877.50
2022-09-06T14:56:58.378Z,99885.03
2022-09-06T14:59:28.454Z,99882.34
2022-09-06T15:01:57.651Z,99881.63
2022-09-06T15:04:28.107Z,99870.31
2022-09-06T15:06:57.008Z,99870.22
2022-09-06T15:09:25.578Z,99864.06
2022-09-06T15:11:54.974Z,99864.06
2022-09-06T15:14:24.906Z,99863.41
2022-09-06T15:16:59.779Z,99867.13
2022-09-06T15:19:31.369Z,99855.13
2022-09-06T15:22:00.299Z,99859.34
2022-09-06T15:24:29.027Z,99854.28
2022-09-06T15:26:58.681Z,99858.56
2022-09-06T15:29:27.617Z,99866.44
2022-09-06T15:31:57.756Z,99862.97
2022-09-06T15:34:27.819Z,99865.50
2022-09-06T15:36:56.860Z,99868.09
2022-09-06T15:39:25.933Z,99864.66
2022-09-06T15:41:54.771Z,99866.28
2022-09-06T15:44:23.449Z,99859.34
2022-09-06T15:46:54.094Z,99866.22
2022-09-06T15:49:28.391Z,99861.16
2022-09-06T15:51:58.860Z,99865.44
2022-09-06T15:54:42.188Z,99863.78
2022-09-06T15:57:10.927Z,99860.25
2022-09-06T15:59:40.916Z,99851.66
2022-09-06T16:02:10.534Z,99852.47
2022-09-06T16:04:40.388Z,99848.13
2022-09-06T16:07:10.174Z,99851.66
2022-09-06T16:09:39.115Z,99850.91
2022-09-06T16:12:08.797Z,99851.66
2022-09-06T16:14:38.749Z,99855.97
2022-09-06T16:17:08.063Z,99844.75
2022-09-06T16:19:36.782Z,99842.94
2022-09-06T16:22:06.853Z,99833.53
2022-09-06T16:24:35.657Z,99832.81
2022-09-06T16:27:04.428Z,99831.88
2022-09-06T16:29:33.099Z,99836.97
2022-09-06T16:32:01.668Z,99835.16
2022-09-06T16:34:30.215Z,99835.22
2022-09-06T16:36:58.940Z,99836.09
2022-09-06T16:39:29.025Z,99831.72
2022-09-06T16:41:58.354Z,99806.38
2022-09-06T16:44:27.051Z,99823.28
2022-09-06T16:46:57.391Z,99814.72
2022-09-06T16:49:26.178Z,99816.59
2022-09-06T16:51:54.922Z,99814.06
2022-09-06T16:54:23.633Z,99813.31
2022-09-06T16:56:54.029Z,99807.59
2022-09-06T16:59:22.711Z,99815.59
2022-09-06T17:01:51.702Z,99816.63
2022-09-06T17:04:20.611Z,99816.72
2022-09-06T17:06:49.222Z,99810.84
2022-09-06T17:09:20.440Z,99817.84
2022-09-06T17:11:50.366Z,99817.84
2022-09-06T17:14:20.620Z,99820.72
2022-09-06T17:16:59.173Z,99814.81
2022-09-06T17:19:28.169Z,99815.88
2022-09-06T17:21:56.931Z,99822.09
2022-09-06T17:24:27.028Z,99818.94
2022-09-06T17:26:56.108Z,99822.66
2022-09-06T17:29:29.553Z,99825.56
2022-09-06T17:31:59.436Z,99828.31
2022-09-06T17:34:28.893Z,99826.84
2022-09-06T17:36:57.619Z,99828.63
2022-09-06T17:39:26.326Z,99825.97
2022-09-06T17:41:55.583Z,99832.97
2022-09-06T17:44:27.501Z,99832.19
2022-09-06T17:47:12.016Z,99847.88
2022-09-06T17:49:42.771Z,99839.56
2022-09-06T17:52:11.632Z,99845.84
2022-09-06T17:54:40.352Z,99842.63
2022-09-06T17:57:09.010Z,99854.13
2022-09-06T17:59:39.699Z,99845.34
2022-09-06T18:02:09.020Z,99838.47
2022-09-06T18:04:38.212Z,99843.66
2022-09-06T18:07:07.210Z,99840.28
2022-09-06T18:09:37.459Z,99836.97
2022-09-06T18:12:07.334Z,99839.00
2022-09-06T18:14:37.082Z,99844.41
2022-09-06T18:17:09.434Z,99835.97
2022-09-06T18:19:38.742Z,99841.41
2022-09-06T18:22:07.399Z,99846.09
2022-09-06T18:24:36.611Z,99846.47
2022-09-06T18:27:05.774Z,99858.78
2022-09-06T18:29:34.808Z,99859.66
2022-09-06T18:32:04.403Z,99854.41
2022-09-06T18:34:34.930Z,99856.03
2022-09-06T18:37:05.202Z,99858.53
2022-09-06T18:39:34.113Z,99854.22
2022-09-06T18:42:07.303Z,99852.56
2022-09-06T18:44:36.981Z,99850.94
2022-09-06T18:47:07.930Z,99855.28
2022-09-06T18:49:43.214Z,99855.31
2022-09-06T18:52:13.090Z,99855.38
2022-09-06T18:54:43.831Z,99862.44
2022-09-06T18:57:12.939Z,99862.53
2022-09-06T18:59:41.555Z,99868.56
2022-09-06T19:02:10.616Z,99863.59
2022-09-06T19:04:40.778Z,99873.22
2022-09-06T19:07:09.670Z,99866.44
2022-09-06T19:09:39.050Z,99858.84
2022-09-06T19:12:07.826Z,99859.09
2022-09-06T19:14:36.941Z,99851.59
2022-09-06T19:17:06.040Z,99852.47
2022-09-06T19:19:34.734Z,99843.13
2022-09-06T19:22:04.810Z,99841.63
2022-09-06T19:24:33.531Z,99842.69
2022-09-06T19:27:02.034Z,99836.94
2022-09-06T19:29:32.382Z,99844.97
2022-09-06T19:32:01.047Z,99845.03
2022-09-06T19:34:29.894Z,99843.44
2022-09-06T19:36:58.723Z,99838.38
2022-09-06T19:39:36.227Z,99833.22
2022-09-06T19:42:06.963Z,99836.66
2022-09-06T19:44:35.700Z,99836.72
2022-09-06T19:47:04.271Z,99836.72
2022-09-06T19:49:33.070Z,99832.41
2022-09-06T19:52:01.827Z,99841.81
2022-09-06T19:54:31.792Z,99840.22
2022-09-06T19:57:00.723Z,99835.13
2022-09-06T19:59:29.884Z,99835.06
2022-09-06T20:01:59.214Z,99828.19
2022-09-06T20:04:28.985Z,99820.53
2022-09-06T20:06:57.805Z,99838.50
2022-09-06T20:09:26.466Z,99824.97
2022-09-06T20:11:56.462Z,99831.75
2022-09-06T20:14:26.584Z,99836.09
2022-09-06T20:17:00.312Z,99834.38
2022-09-06T20:19:40.800Z,99836.16
2022-09-06T20:22:11.166Z,99831.88
2022-09-06T20:24:40.187Z,99835.47
2022-09-06T20:27:10.122Z,99845.91
2022-09-06T20:29:38.774Z,99848.47
2022-09-06T20:32:07.593Z,99843.34
2022-09-06T20:34:36.369Z,99851.19
2022-09-06T20:37:05.083Z,99842.69
2022-09-06T20:39:34.133Z,99845.28
2022-09-06T20:42:02.801Z,99850.47
2022-09-06T20:44:33.264Z,99842.91
2022-09-06T20:47:01.911Z,99850.66
2022-09-06T20:49:33.804Z,99846.38
2022-09-06T20:52:02.506Z,99843.78
2022-09-06T20:54:31.108Z,99835.25
2022-09-06T20:56:59.624Z,99842.22
2022-09-06T20:59:28.293Z,99838.88
2022-09-06T21:01:58.818Z,99834.59
2022-09-06T21:04:27.775Z,99828.59
2022-09-06T21:06:56.594Z,99827.75
2022-09-06T21:09:25.116Z,99827.00
2022-09-06T21:11:54.546Z,99817.53
2022-09-06T21:14:23.393Z,99820.13
2022-09-06T21:16:52.323Z,99826.19
2022-09-06T21:19:22.495Z,99818.53
2022-09-06T21:21:51.136Z,99820.38
2022-09-06T21:24:19.844Z,99831.50
2022-09-06T21:26:48.567Z,99835.78
2022-09-06T21:29:17.090Z,99832.47
2022-09-06T21:31:45.883Z,99837.63
2022-09-06T21:34:17.207Z,99835.91
2022-09-06T21:36:47.866Z,99831.72
2022-09-06T21:39:16.759Z,99831.00
2022-09-06T21:41:46.909Z,99831.88
2022-09-06T21:44:15.826Z,99822.47
2022-09-06T21:46:44.699Z,99818.13
2022-09-06T21:49:15.099Z,99810.41
2022-09-06T21:51:44.177Z,99799.50
2022-09-06T21:54:14.256Z,99812.53
2022-09-06T21:56:43.305Z,99808.19
2022-09-06T21:59:12.310Z,99815.06
2022-09-06T22:01:43.994Z,99808.94
2022-09-06T22:04:15.330Z,99809.00
2022-09-06T22:06:44.015Z,99803.88
2022-09-06T22:09:15.069Z,99808.13
2022-09-06T22:11:45.599Z,99810.78
2022-09-06T22:14:16.131Z,99790.47
2022-09-06T22:16:45.224Z,99810.03
2022-09-06T22:19:14.076Z,99806.56
2022-09-06T22:21:42.650Z,99808.28
2022-09-06T22:24:14.465Z,99806.56
2022-09-06T22:26:43.636Z,99808.28
2022-09-06T22:29:13.748Z,99811.66
2022-09-06T22:31:42.715Z,99813.44
2022-09-06T22:34:11.863Z,99811.72
2022-09-06T22:36:40.842Z,99815.19
2022-09-06T22:39:09.818Z,99810.09
2022-09-06T22:41:39.989Z,99812.78
2022-09-06T22:44:08.728Z,99806.81
2022-09-06T22:46:37.938Z,99799.25
2022-09-06T22:49:06.838Z,99806.91
2022-09-06T22:51:35.589Z,99803.50
2022-09-06T22:54:05.411Z,99803.50
2022-09-06T22:56:36.036Z,99812.06
2022-09-06T22:59:06.552Z,99798.47
2022-09-06T23:01:38.990Z,99799.19
2022-09-06T23:04:08.772Z,99806.91
2022-09-06T23:06:38.411Z,99813.78
2022-09-06T23:09:08.118Z,99811.22
2022-09-06T23:11:37.160Z,99807.81
2022-09-06T23:14:07.309Z,99798.44
2022-09-06T23:16:36.322Z,99802.72
2022-09-06T23:19:04.980Z,99803.59
2022-09-06T23:21:33.990Z,99807.00
2022-09-06T23:24:02.853Z,99808.72
2022-09-06T23:26:33.394Z,99811.34
2022-09-06T23:29:02.118Z,99803.63
2022-09-06T23:31:33.345Z,99800.25
2022-09-06T23:34:05.241Z,99805.38
2022-09-06T23:36:34.380Z,99799.38
2022-09-06T23:39:03.121Z,99801.16
2022-09-06T23:41:32.027Z,99792.66
2022-09-06T23:44:01.013Z,99788.41
2022-09-06T23:46:31.461Z,99797.84
2022-09-06T23:49:00.165Z,99787.53
2022-09-06T23:51:29.050Z,99788.38
2022-09-06T23:53:58.743Z,99780.66
2022-09-06T23:56:27.496Z,99788.41
2022-09-06T23:58:56.325Z,99779.00
